Time;durP1;ratioP1;P1;durP2;ratioP2;P2;SDS_P1;SDS_P2;PMS_P1;PMS_P2;Temp;Humidity;BMP_temperature;BMP_pressure;BME280_temperature;BME280_humidity;BME280_pressure;Samples;Min_cycle;Max_cycle;Signal;HPM_P1;HPM_P2
2023/01/02 00:00:50;;;;;;;128.57;39.28;;;;;;;11.21;100.00;95675.28;5022063;28;20037;-86
2023/01/02 00:03:15;;;;;;;66.78;27.40;;;;;;;11.40;100.00;95678.41;5022124;28;20112;-86
2023/01/02 00:05:40;;;;;;;78.03;27.88;;;;;;;11.20;100.00;95681.56;5021927;28;20033;-86
2023/01/02 00:08:06;;;;;;;93.45;28.80;;;;;;;11.16;100.00;95676.75;5005296;28;20030;-86
2023/01/02 00:10:31;;;;;;;61.85;24.95;;;;;;;11.23;100.00;95676.59;5021932;28;20083;-86
2023/01/02 00:12:57;;;;;;;56.00;24.08;;;;;;;11.23;100.00;95676.59;5021877;28;20033;-87
2023/01/02 00:15:22;;;;;;;85.72;26.77;;;;;;;11.20;100.00;95674.47;5006053;28;20039;-86
2023/01/02 00:17:48;;;;;;;77.35;27.10;;;;;;;11.16;100.00;95668.88;5039245;28;20141;-87
2023/01/02 00:20:13;;;;;;;55.83;23.58;;;;;;;11.33;100.00;95665.47;5039291;28;20528;-87
2023/01/02 00:22:38;;;;;;;54.70;22.17;;;;;;;11.32;100.00;95669.94;5022173;28;20029;-87
2023/01/02 00:25:05;;;;;;;79.30;24.52;;;;;;;11.44;100.00;95656.72;5022249;28;20457;-86
2023/01/02 00:27:30;;;;;;;70.65;25.48;;;;;;;11.40;100.00;95660.84;5021726;28;20052;-86
2023/01/02 00:29:55;;;;;;;85.13;27.92;;;;;;;11.39;100.00;95663.72;5005260;28;20418;-86
2023/01/02 00:32:21;;;;;;;84.20;28.83;;;;;;;11.25;100.00;95650.13;5020826;28;20049;-86
2023/01/02 00:34:46;;;;;;;71.38;25.10;;;;;;;11.36;100.00;95649.25;5021489;28;20060;-86
2023/01/02 00:37:12;;;;;;;85.22;30.90;;;;;;;11.43;100.00;95646.47;5021273;28;20033;-86
2023/01/02 00:39:37;;;;;;;106.13;34.97;;;;;;;11.30;100.00;95644.97;5038982;28;20095;-86
2023/01/02 00:42:03;;;;;;;147.23;39.40;;;;;;;11.49;100.00;95644.72;5021177;28;20029;-86
2023/01/02 00:44:28;;;;;;;115.07;31.00;;;;;;;11.62;100.00;95639.13;5020028;28;20113;-86
2023/01/02 00:46:53;;;;;;;64.85;25.25;;;;;;;11.59;100.00;95640.41;5001442;28;20427;-86
2023/01/02 00:49:19;;;;;;;97.03;28.55;;;;;;;11.45;100.00;95645.19;5001559;28;20029;-86
2023/01/02 00:51:44;;;;;;;133.50;36.42;;;;;;;11.61;100.00;95640.13;5018972;28;20026;-86
2023/01/02 00:54:10;;;;;;;115.65;39.20;;;;;;;11.62;100.00;95641.75;5001479;28;20030;-86
2023/01/02 00:56:35;;;;;;;147.30;41.72;;;;;;;11.21;100.00;95644.56;5018712;28;20449;-86
2023/01/02 00:59:01;;;;;;;148.75;39.95;;;;;;;11.65;100.00;95645.72;4985118;28;20120;-86
2023/01/02 01:01:26;;;;;;;174.90;48.80;;;;;;;11.67;100.00;95641.81;5001448;28;20129;-86
2023/01/02 01:03:52;;;;;;;152.55;44.10;;;;;;;11.83;100.00;95637.53;5018737;28;20032;-86
2023/01/02 01:06:17;;;;;;;124.75;39.17;;;;;;;11.96;100.00;95641.66;5001158;28;20049;-86
2023/01/02 01:08:42;;;;;;;139.23;38.20;;;;;;;11.93;100.00;95634.25;5017553;28;20053;-87
2023/01/02 01:11:13;;;;;;;132.95;35.15;;;;;;;12.11;100.00;95637.66;5018907;28;20037;-87
2023/01/02 01:13:38;;;;;;;101.32;32.90;;;;;;;11.85;100.00;95629.44;5001197;28;20030;-87
2023/01/02 01:16:10;;;;;;;119.60;36.25;;;;;;;11.82;100.00;95635.16;5001181;28;20069;-87
2023/01/02 01:18:36;;;;;;;102.50;30.40;;;;;;;11.73;100.00;95638.19;5000946;28;20057;-87
2023/01/02 01:21:09;;;;;;;94.68;31.98;;;;;;;11.85;100.00;95632.06;4984972;28;20026;-87
2023/01/02 01:23:37;;;;;;;107.53;31.85;;;;;;;11.83;100.00;95634.13;4985230;28;20033;-87
2023/01/02 01:26:11;;;;;;;74.20;25.52;;;;;;;11.73;100.00;95632.19;4985001;28;20036;-86
2023/01/02 01:28:36;;;;;;;99.80;26.60;;;;;;;11.32;100.00;95638.44;5000833;28;20107;-87
2023/01/02 01:31:10;;;;;;;79.70;25.05;;;;;;;11.62;100.00;95639.13;5001616;28;20033;-86
2023/01/02 01:33:37;;;;;;;91.95;27.13;;;;;;;11.51;100.00;95629.53;5040174;28;20029;-86
2023/01/02 01:36:05;;;;;;;113.43;31.83;;;;;;;11.60;100.00;95618.34;5039997;28;20032;-86
2023/01/02 01:38:31;;;;;;;111.32;30.83;;;;;;;11.57;100.00;95618.03;5040026;28;20029;-86
2023/01/02 01:40:57;;;;;;;114.25;33.05;;;;;;;11.55;100.00;95635.88;5036379;28;20033;-87
2023/01/02 01:43:45;;;;;;;130.00;31.92;;;;;;;11.68;100.00;95632.91;5016285;28;20044;-86
2023/01/02 01:46:35;;;;;;;122.22;30.27;;;;;;;11.43;100.00;95628.09;5009352;28;20036;-86
2023/01/02 01:49:17;;;;;;;65.10;24.05;;;;;;;11.59;100.00;95636.97;5022933;28;20038;-86
2023/01/02 01:51:50;;;;;;;89.03;25.70;;;;;;;11.59;100.00;95634.34;4998383;28;20088;-86
2023/01/02 01:54:20;;;;;;;70.72;24.20;;;;;;;11.41;100.00;95638.06;5012864;28;20030;-86
2023/01/02 01:56:51;;;;;;;82.68;27.23;;;;;;;11.23;100.00;95626.75;4984065;28;20273;-86
2023/01/02 01:59:17;;;;;;;58.85;23.20;;;;;;;11.39;100.00;95633.03;5000239;28;20072;-86
2023/01/02 02:01:43;;;;;;;78.47;25.48;;;;;;;11.22;100.00;95629.63;5000253;28;20030;-86
2023/01/02 02:04:10;;;;;;;101.22;29.27;;;;;;;11.20;100.00;95629.09;5000517;28;20342;-87
2023/01/02 02:06:35;;;;;;;94.00;26.48;;;;;;;11.36;100.00;95628.28;4984136;28;20022;-86
2023/01/02 02:09:08;;;;;;;130.80;33.22;;;;;;;11.63;100.00;95622.34;4983673;28;20033;-86
2023/01/02 02:11:34;;;;;;;113.75;29.90;;;;;;;11.29;100.00;95622.38;5018691;28;20037;-86
2023/01/02 02:14:00;;;;;;;95.78;32.15;;;;;;;11.52;100.00;95612.72;5019607;28;20041;-86
2023/01/02 02:16:40;;;;;;;98.35;28.73;;;;;;;11.76;100.00;95615.13;5019351;28;20410;-86
2023/01/02 02:19:43;;;;;;;126.65;36.33;;;;;;;11.98;100.00;95617.78;5003303;28;20385;-86
2023/01/02 02:22:14;;;;;;;98.25;26.17;;;;;;;11.86;100.00;95615.25;5037118;28;20029;-86
2023/01/02 02:25:06;;;;;;;113.25;31.63;;;;;;;11.68;100.00;95609.28;5019682;28;20029;-86
2023/01/02 02:27:45;;;;;;;117.03;34.22;;;;;;;11.49;100.00;95610.59;5003160;28;20334;-86
2023/01/02 02:30:16;;;;;;;132.13;34.42;;;;;;;11.85;100.00;95608.41;5019332;28;20061;-86
2023/01/02 02:32:48;;;;;;;101.95;25.67;;;;;;;11.83;100.00;95605.25;5003090;28;20091;-86
2023/01/02 02:35:25;;;;;;;90.03;24.48;;;;;;;11.69;100.00;95594.28;5019474;28;20431;-86
2023/01/02 02:38:01;;;;;;;59.10;19.70;;;;;;;11.76;100.00;95594.13;5019276;28;20029;-85
2023/01/02 02:40:40;;;;;;;84.40;24.75;;;;;;;11.42;100.00;95590.56;5019288;28;20060;-86
2023/01/02 02:43:18;;;;;;;101.78;30.30;;;;;;;11.52;100.00;95594.38;5002918;28;20033;-85
2023/01/02 02:45:49;;;;;;;112.78;33.38;;;;;;;11.82;100.00;95593.94;5019263;28;20033;-86
2023/01/02 02:48:36;;;;;;;111.20;27.83;;;;;;;11.81;100.00;95594.19;5036740;28;20031;-85
2023/01/02 02:51:14;;;;;;;92.40;28.13;;;;;;;11.73;100.00;95590.94;5036786;28;20480;-85
2023/01/02 02:54:09;;;;;;;90.35;24.33;;;;;;;11.81;100.00;95587.09;5019074;28;20062;-85
2023/01/02 02:56:35;;;;;;;87.10;26.13;;;;;;;11.63;100.00;95587.41;4999411;28;20358;-86
2023/01/02 02:59:00;;;;;;;81.10;23.17;;;;;;;11.51;100.00;95582.28;4999451;28;20030;-85
2023/01/02 03:01:28;;;;;;;92.40;25.35;;;;;;;11.56;100.00;95590.22;4999436;28;20030;-86
2023/01/02 03:04:01;;;;;;;62.20;19.85;;;;;;;11.67;100.00;95583.25;4999341;28;20026;-86
2023/01/02 03:06:54;;;;;;;68.80;19.92;;;;;;;11.58;100.00;95582.88;4999271;28;20463;-86
2023/01/02 03:09:29;;;;;;;69.45;22.63;;;;;;;11.56;100.00;95585.75;4983212;28;20030;-86
2023/01/02 03:12:15;;;;;;;74.80;22.85;;;;;;;11.66;100.00;95589.53;5016798;28;20025;-85
2023/01/02 03:14:53;;;;;;;81.10;23.45;;;;;;;11.26;100.00;95588.75;5016799;28;20029;-86
2023/01/02 03:17:53;;;;;;;90.07;27.23;;;;;;;11.65;100.00;95591.38;5016456;28;20034;-86
2023/01/02 03:20:22;;;;;;;89.97;24.20;;;;;;;11.63;100.00;95585.59;4950020;28;20033;-86
2023/01/02 03:22:50;;;;;;;73.22;24.08;;;;;;;11.62;100.00;95589.25;4983225;28;20022;-86
2023/01/02 03:25:16;;;;;;;70.65;19.70;;;;;;;11.61;100.00;95585.00;4999146;28;20494;-86
2023/01/02 03:27:44;;;;;;;59.38;17.67;;;;;;;11.64;100.00;95581.94;4999094;28;20382;-86
2023/01/02 03:30:16;;;;;;;75.43;20.77;;;;;;;11.63;100.00;95585.59;4999002;28;20057;-85
2023/01/02 03:32:47;;;;;;;75.95;20.52;;;;;;;11.55;100.00;95592.06;4999169;28;20116;-86
2023/01/02 03:35:16;;;;;;;81.53;20.20;;;;;;;11.57;100.00;95587.34;5015667;28;20022;-86
2023/01/02 03:37:45;;;;;;;83.75;24.42;;;;;;;11.59;100.00;95587.09;4998890;28;20049;-86
2023/01/02 03:40:15;;;;;;;82.55;22.02;;;;;;;11.64;100.00;95592.44;4983015;28;20030;-86
2023/01/02 03:42:46;;;;;;;67.03;20.83;;;;;;;11.65;100.00;95583.50;4999188;28;20152;-86
2023/01/02 03:45:19;;;;;;;70.22;21.70;;;;;;;11.48;100.00;95582.75;4998983;28;20455;-86
2023/01/02 03:47:52;;;;;;;89.97;24.98;;;;;;;11.59;100.00;95587.09;4982845;28;20026;-85
2023/01/02 03:50:48;;;;;;;64.68;19.60;;;;;;;11.59;100.00;95582.66;5016493;28;20023;-85
2023/01/02 03:53:14;;;;;;;75.22;22.27;;;;;;;11.42;100.00;95576.66;5015677;28;20049;-86
2023/01/02 03:55:42;;;;;;;72.65;20.67;;;;;;;11.55;100.00;95580.75;4998863;28;20030;-86
2023/01/02 03:58:37;;;;;;;56.47;17.45;;;;;;;11.56;100.00;95580.53;4982950;28;20033;-86
2023/01/02 04:01:08;;;;;;;64.95;15.02;;;;;;;11.47;100.00;95579.34;4985952;28;20045;-86
2023/01/02 04:03:48;;;;;;;53.65;16.45;;;;;;;11.40;100.00;95576.09;4982845;28;20435;-86
2023/01/02 04:06:15;;;;;;;43.78;14.88;;;;;;;11.40;100.00;95573.47;4999566;28;20025;-86
2023/01/02 04:08:48;;;;;;;33.83;11.15;;;;;;;11.44;100.00;95577.22;4986247;28;20124;-86
2023/01/02 04:11:16;;;;;;;32.67;10.32;;;;;;;11.30;100.00;95574.94;5002693;28;20261;-86
2023/01/02 04:13:50;;;;;;;21.65;7.57;;;;;;;11.45;100.00;95579.56;5002245;28;20075;-86
2023/01/02 04:16:22;;;;;;;25.35;8.30;;;;;;;11.26;100.00;95578.28;5002019;28;20022;-86
2023/01/02 04:18:56;;;;;;;24.98;8.55;;;;;;;11.28;100.00;95573.56;5002370;28;20133;-86
2023/01/02 04:21:24;;;;;;;27.27;9.18;;;;;;;11.21;100.00;95580.84;5018691;28;20029;-85
2023/01/02 04:24:03;;;;;;;24.63;8.88;;;;;;;11.25;100.00;95577.47;5018413;28;20030;-86
2023/01/02 04:26:33;;;;;;;19.13;8.07;;;;;;;11.12;100.00;95580.44;5011165;28;20083;-86
2023/01/02 04:28:58;;;;;;;20.92;6.65;;;;;;;10.99;100.00;95576.31;5019434;28;20055;-86
2023/01/02 04:31:27;;;;;;;20.95;7.30;;;;;;;11.04;100.00;95581.63;5015893;28;20042;-85
2023/01/02 04:33:58;;;;;;;18.88;6.65;;;;;;;11.15;100.00;95570.25;5002357;28;20038;-85
2023/01/02 04:36:24;;;;;;;21.80;7.13;;;;;;;11.09;100.00;95576.47;5001811;28;20030;-86
2023/01/02 04:38:49;;;;;;;23.90;8.18;;;;;;;11.02;100.00;95578.44;5001777;28;20081;-86
2023/01/02 04:41:25;;;;;;;19.17;6.65;;;;;;;11.16;100.00;95574.47;5001890;28;20030;-86
2023/01/02 04:43:57;;;;;;;21.35;6.82;;;;;;;11.14;100.00;95568.66;4986487;28;20071;-86
2023/01/02 04:46:23;;;;;;;20.85;6.90;;;;;;;10.84;100.00;95571.66;5001581;28;20030;-86
2023/01/02 04:48:49;;;;;;;19.33;6.25;;;;;;;10.90;100.00;95568.06;5001551;28;20032;-86
2023/01/02 04:51:18;;;;;;;14.40;6.32;;;;;;;10.99;100.00;95576.31;4985640;28;20339;-85
2023/01/02 04:53:47;;;;;;;17.58;5.93;;;;;;;11.07;100.00;95575.09;5001477;28;20032;-86
2023/01/02 04:56:12;;;;;;;19.77;6.80;;;;;;;10.85;100.00;95581.09;4985159;28;20036;-86
2023/01/02 04:58:38;;;;;;;14.20;5.65;;;;;;;10.84;100.00;95580.28;4985105;28;20025;-86
2023/01/02 05:01:08;;;;;;;12.60;5.32;;;;;;;11.05;100.00;95580.63;5001372;28;20427;-86
2023/01/02 05:03:33;;;;;;;17.08;5.75;;;;;;;10.92;100.00;95580.94;4985327;28;20107;-86
2023/01/02 05:06:00;;;;;;;24.27;9.10;;;;;;;11.05;100.00;95577.19;5018589;28;20033;-86
2023/01/02 05:08:27;;;;;;;27.73;9.73;;;;;;;10.93;100.00;95585.16;5001262;28;20022;-86
2023/01/02 05:10:53;;;;;;;27.10;8.63;;;;;;;11.01;100.00;95582.09;5001097;28;20033;-86
2023/01/02 05:13:18;;;;;;;19.98;8.20;;;;;;;10.99;100.00;95590.22;5001327;28;20029;-86
2023/01/02 05:15:44;;;;;;;24.90;7.57;;;;;;;11.02;100.00;95589.75;5014247;28;20029;-86
2023/01/02 05:18:09;;;;;;;26.73;9.27;;;;;;;11.15;100.00;95588.59;5004018;28;20034;-86
2023/01/02 05:20:34;;;;;;;31.00;10.23;;;;;;;11.17;100.00;95597.03;5020541;28;20430;-86
2023/01/02 05:25:44;;;;;;;24.73;7.47;;;;;;;11.20;100.00;95589.75;5023105;28;20142;-86
2023/01/02 05:28:09;;;;;;;21.95;9.10;;;;;;;11.28;100.00;95590.13;5020493;28;20505;-86
2023/01/02 05:30:37;;;;;;;23.80;7.18;;;;;;;11.46;100.00;95599.53;5004361;28;20351;-86
2023/01/02 05:33:02;;;;;;;23.48;7.28;;;;;;;11.27;100.00;95585.09;5024168;28;20450;-86
2023/01/02 05:35:28;;;;;;;15.40;6.25;;;;;;;11.22;100.00;95587.66;5023882;28;20067;-86
2023/01/02 05:37:53;;;;;;;18.05;6.97;;;;;;;11.28;100.00;95590.13;5039876;28;20041;-86
2023/01/02 05:40:19;;;;;;;21.08;6.82;;;;;;;11.23;100.00;95597.13;5040016;28;20094;-86
2023/01/02 05:42:44;;;;;;;18.85;7.00;;;;;;;11.19;100.00;95594.19;5023731;28;20029;-85
2023/01/02 05:45:10;;;;;;;15.63;7.55;;;;;;;11.39;100.00;95595.50;5040097;28;20033;-85
2023/01/02 05:47:35;;;;;;;23.02;7.75;;;;;;;11.41;100.00;95593.44;5040308;28;20083;-85
2023/01/02 05:50:01;;;;;;;17.73;6.35;;;;;;;11.47;100.00;95592.47;5023567;28;20434;-85
2023/01/02 05:52:26;;;;;;;13.80;6.40;;;;;;;11.23;100.00;95595.28;5039796;28;20033;-85
2023/01/02 05:54:51;;;;;;;26.13;7.65;;;;;;;11.15;100.00;95595.69;5039790;28;20064;-85
2023/01/02 05:57:17;;;;;;;21.58;7.40;;;;;;;11.22;100.00;95592.91;5023200;28;20052;-85
2023/01/02 05:59:42;;;;;;;17.30;7.90;;;;;;;11.24;100.00;95589.00;5039580;28;20033;-85
2023/01/02 06:02:08;;;;;;;16.10;6.97;;;;;;;11.24;100.00;95589.00;5057366;28;20024;-85
2023/01/02 06:04:33;;;;;;;20.70;7.28;;;;;;;11.14;100.00;95594.88;5023236;28;20039;-85
2023/01/02 06:06:58;;;;;;;17.08;6.47;;;;;;;11.11;100.00;95598.00;5023128;28;20422;-85
2023/01/02 06:09:24;;;;;;;23.40;6.60;;;;;;;11.03;100.00;95599.19;5039712;28;20115;-85
2023/01/02 06:11:49;;;;;;;21.73;6.80;;;;;;;11.09;100.00;95599.25;5023212;28;20028;-85
2023/01/02 06:14:15;;;;;;;17.05;6.40;;;;;;;11.21;100.00;95607.06;5039374;28;20029;-85
2023/01/02 06:16:40;;;;;;;28.02;8.35;;;;;;;11.25;100.00;95605.53;5039299;28;20120;-85
2023/01/02 06:19:06;;;;;;;26.55;10.93;;;;;;;11.22;100.00;95606.81;5039494;28;20028;-86
2023/01/02 06:21:31;;;;;;;35.65;10.48;;;;;;;11.24;100.00;95599.50;5016479;28;20032;-85
2023/01/02 06:23:58;;;;;;;23.30;8.88;;;;;;;11.27;100.00;95606.91;5027677;28;20083;-85
2023/01/02 06:26:25;;;;;;;23.90;7.75;;;;;;;11.24;100.00;95615.22;5019376;28;20057;-85
2023/01/02 06:28:52;;;;;;;26.08;7.70;;;;;;;11.11;100.00;95607.69;5036514;28;20029;-85
2023/01/02 06:31:20;;;;;;;17.33;6.28;;;;;;;11.22;100.00;95608.66;5002848;28;20041;-86
2023/01/02 06:33:46;;;;;;;15.63;5.70;;;;;;;11.31;100.00;95615.06;5019353;28;20036;-85
2023/01/02 06:36:14;;;;;;;16.88;5.63;;;;;;;11.35;100.00;95610.94;5019328;28;20033;-85
2023/01/02 06:38:40;;;;;;;16.08;5.68;;;;;;;11.30;100.00;95616.09;5019193;28;20026;-85
2023/01/02 06:41:07;;;;;;;19.05;6.35;;;;;;;11.45;100.00;95611.06;5019772;28;20026;-85
2023/01/02 06:43:33;;;;;;;23.58;6.68;;;;;;;11.45;100.00;95616.31;5019482;28;20028;-85
2023/01/02 06:46:00;;;;;;;11.93;6.10;;;;;;;11.50;100.00;95614.81;5019032;28;20025;-85
2023/01/02 06:48:26;;;;;;;10.27;5.25;;;;;;;11.58;100.00;95615.19;5018616;28;20021;-85
2023/01/02 06:50:51;;;;;;;12.63;4.95;;;;;;;11.58;100.00;95619.63;5002818;28;20047;-85
2023/01/02 06:53:17;;;;;;;14.50;5.28;;;;;;;11.58;100.00;95619.63;5036722;28;20032;-85
2023/01/02 06:55:54;;;;;;;15.02;5.35;;;;;;;11.20;100.00;95616.75;5002465;28;20124;-85
2023/01/02 06:58:20;;;;;;;11.23;4.50;;;;;;;11.27;100.00;95619.22;5018975;28;20152;-85
2023/01/02 07:00:46;;;;;;;16.08;5.65;;;;;;;11.21;100.00;95631.44;5019057;28;20044;-85
2023/01/02 07:03:12;;;;;;;13.95;4.88;;;;;;;11.14;100.00;95631.63;5002562;28;20037;-85
2023/01/02 07:05:37;;;;;;;15.07;5.35;;;;;;;11.18;100.00;95637.19;5036546;28;20030;-85
2023/01/02 07:08:03;;;;;;;11.90;5.18;;;;;;;11.22;100.00;95640.91;5019046;28;20021;-85
2023/01/02 07:10:28;;;;;;;9.00;4.88;;;;;;;11.25;100.00;95634.41;5002661;28;20144;-85
2023/01/02 07:12:54;;;;;;;12.90;4.63;;;;;;;11.23;100.00;95645.13;5019194;28;20033;-85
2023/01/02 07:15:19;;;;;;;11.27;3.95;;;;;;;11.24;100.00;95645.94;5018874;28;20036;-85
2023/01/02 07:17:45;;;;;;;9.27;4.13;;;;;;;11.29;100.00;95646.00;5018841;28;20534;-85
2023/01/02 07:20:10;;;;;;;13.38;3.92;;;;;;;11.38;100.00;95644.56;5018760;28;20104;-85
2023/01/02 07:22:36;;;;;;;9.43;4.15;;;;;;;11.35;100.00;95646.88;5018770;28;20030;-85
2023/01/02 07:25:01;;;;;;;11.13;4.13;;;;;;;11.33;100.00;95652.34;5002647;28;20091;-84
2023/01/02 07:27:30;;;;;;;9.82;3.85;;;;;;;11.42;100.00;95656.16;5018521;28;20443;-85
2023/01/02 07:29:56;;;;;;;13.07;4.13;;;;;;;11.37;100.00;95650.03;5018637;28;20040;-85
2023/01/02 07:32:22;;;;;;;11.98;3.72;;;;;;;11.50;100.00;95659.44;5018718;28;20438;-85
2023/01/02 07:34:47;;;;;;;7.15;3.30;;;;;;;11.37;100.00;95650.03;5002429;28;20088;-85
2023/01/02 07:37:13;;;;;;;9.85;4.60;;;;;;;11.56;100.00;95650.56;5018488;28;20155;-85
2023/01/02 07:39:38;;;;;;;7.82;3.88;;;;;;;11.53;100.00;95651.06;5002063;28;20029;-85
2023/01/02 07:42:05;;;;;;;9.82;3.67;;;;;;;11.70;100.00;95651.81;5004689;28;20033;-86
2023/01/02 07:44:31;;;;;;;9.30;3.83;;;;;;;11.75;100.00;95651.09;5022610;28;20040;-85
2023/01/02 07:46:56;;;;;;;12.48;3.65;;;;;;;11.80;100.00;95655.63;5006422;28;20439;-85
2023/01/02 07:49:21;;;;;;;12.55;3.58;;;;;;;11.99;100.00;95659.53;5006115;28;20146;-85
2023/01/02 07:51:47;;;;;;;7.47;4.22;;;;;;;12.16;100.00;95656.09;5006115;28;20029;-85
2023/01/02 07:54:12;;;;;;;13.18;4.93;;;;;;;12.40;100.00;95659.25;5022147;28;20025;-85
2023/01/02 07:56:38;;;;;;;12.23;4.38;;;;;;;12.52;100.00;95666.19;4996911;28;20033;-85
2023/01/02 07:59:04;;;;;;;9.07;3.90;;;;;;;12.62;100.00;95668.94;4986411;28;20032;-84
2023/01/02 08:01:29;;;;;;;8.68;3.97;;;;;;;12.75;100.00;95669.59;5002614;28;20034;-85
2023/01/02 08:03:55;;;;;;;8.82;3.83;;;;;;;12.90;100.00;95663.66;5002669;28;20033;-85
2023/01/02 08:06:20;;;;;;;8.02;4.32;;;;;;;13.12;100.00;95668.84;5002492;28;20029;-85
2023/01/02 08:08:46;;;;;;;13.52;5.05;;;;;;;12.75;100.00;95672.22;4986174;28;20021;-85
2023/01/02 08:11:14;;;;;;;13.88;4.75;;;;;;;13.07;100.00;95680.16;5002358;28;20053;-85
2023/01/02 08:13:39;;;;;;;7.57;4.38;;;;;;;13.04;100.00;95675.34;5002282;28;20022;-85
2023/01/02 08:16:13;;;;;;;12.20;5.15;;;;;;;12.96;100.00;95679.25;5002376;28;20022;-84
2023/01/02 08:18:39;;;;;;;8.93;4.13;;;;;;;13.21;100.00;95679.72;4989699;28;20034;-84
2023/01/02 08:21:05;;;;;;;7.15;4.28;;;;;;;13.49;100.00;95683.13;5002219;28;20362;-85
2023/01/02 08:23:31;;;;;;;12.85;5.38;;;;;;;12.92;100.00;95678.16;5019364;28;20161;-85
2023/01/02 08:26:00;;;;;;;10.43;4.85;;;;;;;13.49;100.00;95673.38;5019250;28;20383;-84
2023/01/02 08:28:27;;;;;;;10.13;4.32;;;;;;;13.49;100.00;95676.00;5001701;28;20018;-85
2023/01/02 08:30:52;;;;;;;12.05;4.90;;;;;;;13.27;100.00;95676.88;4997984;28;20026;-85
2023/01/02 08:33:18;;;;;;;8.40;4.15;;;;;;;13.03;100.00;95686.94;5011866;28;20037;-85
2023/01/02 08:35:43;;;;;;;7.20;3.97;;;;;;;13.27;100.00;95678.72;5005504;28;20393;-84
2023/01/02 08:38:11;;;;;;;9.77;4.03;;;;;;;13.36;100.00;95679.84;5021654;28;20032;-84
2023/01/02 08:40:37;;;;;;;6.05;3.40;;;;;;;13.54;100.00;95683.16;5021328;28;20048;-84
2023/01/02 08:43:02;;;;;;;6.90;4.05;;;;;;;13.52;100.00;95693.91;5021526;28;20036;-85
2023/01/02 08:45:28;;;;;;;9.95;4.97;;;;;;;13.16;100.00;95691.00;5039230;28;20461;-84
2023/01/02 08:47:53;;;;;;;14.73;5.35;;;;;;;13.15;100.00;95684.94;5021359;28;20022;-84
2023/01/02 08:50:20;;;;;;;10.95;5.10;;;;;;;13.24;100.00;95695.00;5021592;28;20030;-84
2023/01/02 08:52:45;;;;;;;10.48;4.93;;;;;;;13.33;100.00;95696.13;5000869;28;20320;-84
2023/01/02 08:55:12;;;;;;;19.23;5.95;;;;;;;13.31;100.00;95703.47;4993162;28;20029;-84
2023/01/02 08:57:38;;;;;;;11.18;5.25;;;;;;;13.67;100.00;95703.78;5001841;28;20029;-84
2023/01/02 09:00:04;;;;;;;12.85;5.70;;;;;;;14.19;100.00;95700.63;5002752;28;20029;-84
2023/01/02 09:02:29;;;;;;;14.02;6.47;;;;;;;14.56;100.00;95694.41;5001799;28;20036;-84
2023/01/02 09:04:55;;;;;;;13.95;5.38;;;;;;;14.68;100.00;95700.25;5001521;28;20081;-84
2023/01/02 09:07:20;;;;;;;12.55;5.90;;;;;;;14.96;100.00;95698.22;5001627;28;20080;-84
2023/01/02 09:09:46;;;;;;;15.48;6.70;;;;;;;15.13;100.00;95700.63;5001578;28;20458;-84
2023/01/02 09:12:12;;;;;;;11.10;5.78;;;;;;;15.04;100.00;95696.91;4985325;28;20438;-84
2023/01/02 09:14:42;;;;;;;12.90;5.00;;;;;;;15.19;100.00;95703.25;5001382;28;20036;-84
2023/01/02 09:17:07;;;;;;;17.90;4.93;;;;;;;14.81;100.00;95699.00;4984980;28;20025;-84
2023/01/02 09:19:33;;;;;;;9.70;3.72;;;;;;;14.54;100.00;95704.44;5020770;28;20371;-84
2023/01/02 09:22:00;;;;;;;8.60;3.88;;;;;;;14.77;100.00;95692.66;5038663;28;20029;-84
2023/01/02 09:24:26;;;;;;;10.75;4.40;;;;;;;15.17;100.00;95702.72;5020138;28;20049;-84
2023/01/02 09:26:52;;;;;;;11.85;5.00;;;;;;;14.92;100.00;95696.38;5020979;28;20021;-84
2023/01/02 09:29:18;;;;;;;8.07;4.55;;;;;;;15.08;100.00;95692.72;5020401;28;20116;-84
2023/01/02 09:31:43;;;;;;;10.65;4.72;;;;;;;15.22;100.00;95702.75;5020047;28;20033;-84
2023/01/02 09:34:09;;;;;;;10.45;5.43;;;;;;;15.78;100.00;95699.25;5037906;28;20455;-84
2023/01/02 09:36:35;;;;;;;9.77;4.72;;;;;;;15.93;100.00;95700.31;5037633;28;20431;-84
2023/01/02 09:39:05;;;;;;;15.32;4.70;;;;;;;15.81;100.00;95703.22;5020951;28;20430;-84
2023/01/02 09:41:39;;;;;;;14.85;6.03;;;;;;;16.23;100.00;95699.44;5020376;28;20489;-84
2023/01/02 09:44:16;;;;;;;13.00;4.90;;;;;;;16.16;100.00;95698.16;5023814;28;20084;-84
2023/01/02 09:47:11;;;;;;;10.55;4.28;;;;;;;16.21;100.00;95696.28;5018590;28;20036;-84
2023/01/02 09:49:53;;;;;;;10.20;4.30;;;;;;;16.45;100.00;95686.94;5019882;28;20041;-84
2023/01/02 09:52:26;;;;;;;9.73;4.97;;;;;;;15.81;100.00;95687.38;5036136;28;20025;-84
2023/01/02 09:54:51;;;;;;;15.45;4.38;;;;;;;15.94;100.00;95681.56;4990731;28;20060;-84
2023/01/02 09:57:26;;;;;;;10.75;4.88;;;;;;;16.61;100.00;95683.13;5000401;28;20037;-84
2023/01/02 10:00:10;;;;;;;9.57;4.85;;;;;;;16.86;100.00;95685.91;5001111;28;20053;-85
2023/01/02 10:02:51;;;;;;;9.60;5.23;;;;;;;16.80;100.00;95691.22;5018105;28;20351;-85
2023/01/02 10:05:35;;;;;;;12.32;4.80;;;;;;;16.95;100.00;95677.09;5017130;28;20037;-85
2023/01/02 10:08:13;;;;;;;10.05;4.57;;;;;;;17.09;100.00;95676.50;5002031;28;20038;-84
2023/01/02 10:10:44;;;;;;;6.15;3.70;;;;;;;17.15;100.00;95674.59;5021523;28;20033;-84
2023/01/02 10:13:34;;;;;;;14.07;5.07;;;;;;;17.12;100.00;95669.88;5018283;28;20030;-84
2023/01/02 10:16:01;;;;;;;11.50;4.60;;;;;;;17.20;100.00;95670.06;5025239;28;20041;-83
2023/01/02 10:18:31;;;;;;;9.77;4.57;;;;;;;17.31;100.00;95662.03;5008143;28;20030;-84
2023/01/02 10:21:13;;;;;;;12.45;3.78;;;;;;;16.69;100.00;95663.25;4999991;28;20034;-85
2023/01/02 10:23:41;;;;;;;8.68;3.90;;;;;;;17.15;100.00;95656.88;5018438;28;20029;-83
2023/01/02 10:26:12;;;;;;;12.20;4.97;;;;;;;17.14;100.00;95651.84;5019464;28;20029;-85
2023/01/02 10:28:50;;;;;;;7.88;3.88;;;;;;;17.02;100.00;95647.69;5020094;28;20070;-84
2023/01/02 10:31:38;;;;;;;12.18;4.15;;;;;;;17.23;100.00;95648.31;5037296;28;20081;-84
2023/01/02 10:34:11;;;;;;;8.70;4.35;;;;;;;17.05;100.00;95639.19;5003421;28;20033;-83
2023/01/02 10:36:41;;;;;;;12.20;4.40;;;;;;;16.40;100.00;95634.84;5019336;28;20029;-83
2023/01/02 10:39:17;;;;;;;8.90;4.90;;;;;;;16.40;100.00;95632.19;5020886;28;20025;-83
2023/01/02 10:41:49;;;;;;;13.98;5.18;;;;;;;16.57;100.00;95637.13;5005186;28;20450;-83
2023/01/02 10:44:17;;;;;;;15.82;4.85;;;;;;;16.39;100.00;95628.75;5016084;28;20954;-84
2023/01/02 10:46:43;;;;;;;9.55;4.70;;;;;;;16.30;100.00;95632.25;5009660;28;20506;-83
2023/01/02 10:49:09;;;;;;;13.52;5.43;;;;;;;16.43;100.00;95634.28;5014847;28;20120;-85
2023/01/02 10:51:42;;;;;;;10.63;5.05;;;;;;;16.45;100.00;95626.09;4999534;28;20037;-84
2023/01/02 10:54:08;;;;;;;16.00;4.28;;;;;;;16.36;100.00;95624.00;4999691;28;20021;-83
2023/01/02 10:56:37;;;;;;;9.50;4.45;;;;;;;16.19;100.00;95615.63;4999083;28;20385;-83
2023/01/02 10:59:03;;;;;;;16.55;4.35;;;;;;;16.50;100.00;95618.91;4989793;28;20030;-82
2023/01/02 11:01:31;;;;;;;12.98;4.32;;;;;;;16.54;100.00;95609.38;4983048;28;20362;-84
2023/01/02 11:03:57;;;;;;;9.65;4.00;;;;;;;16.67;100.00;95609.81;4999882;28;20021;-84
2023/01/02 11:06:27;;;;;;;11.65;4.22;;;;;;;17.48;100.00;95616.56;5015346;28;20534;-83
2023/01/02 11:09:01;;;;;;;10.85;3.78;;;;;;;17.80;100.00;95608.03;5015593;28;20030;-84
2023/01/02 11:11:29;;;;;;;15.77;4.85;;;;;;;17.86;100.00;95610.59;4999216;28;20044;-83
2023/01/02 11:14:04;;;;;;;14.18;4.43;;;;;;;18.32;100.00;95604.78;4999095;28;20032;-83
2023/01/02 11:16:39;;;;;;;7.05;3.97;;;;;;;18.51;100.00;95596.81;5001746;28;20026;-87
2023/01/02 11:19:06;;;;;;;12.02;4.10;;;;;;;18.46;100.00;95591.56;5003171;28;20036;-84
2023/01/02 11:21:34;;;;;;;7.53;3.63;;;;;;;18.11;100.00;95591.00;5003713;28;20028;-84
2023/01/02 11:24:14;;;;;;;10.25;3.85;;;;;;;17.91;100.00;95598.06;5003168;28;20029;-84
2023/01/02 11:26:40;;;;;;;8.88;3.30;;;;;;;18.23;100.00;95590.56;5003116;28;20469;-83